createdAt,value
2023-04-23T00:00:15.961Z,8.87
2023-04-23T00:03:27.274Z,8.86
2023-04-23T00:06:33.958Z,8.84
2023-04-23T00:09:42.348Z,8.82
2023-04-23T00:12:51.540Z,8.78
2023-04-23T00:15:58.800Z,8.76
2023-04-23T00:19:04.254Z,8.72
2023-04-23T00:22:10.706Z,8.71
2023-04-23T00:25:16.234Z,8.68
2023-04-23T00:28:25.484Z,8.66
2023-04-23T00:31:30.966Z,8.60
2023-04-23T00:34:37.477Z,8.56
2023-04-23T00:37:43.074Z,8.53
2023-04-23T00:40:49.832Z,8.51
2023-04-23T00:43:59.687Z,8.50
2023-04-23T00:47:07.560Z,8.47
2023-04-23T00:50:13.422Z,8.46
2023-04-23T00:53:19.743Z,8.42
2023-04-23T00:56:26.365Z,8.39
2023-04-23T00:59:35.741Z,8.35
2023-04-23T01:02:42.773Z,8.31
2023-04-23T01:05:50.357Z,8.22
2023-04-23T01:08:56.027Z,8.22
2023-04-23T01:12:05.689Z,8.18
2023-04-23T01:15:14.986Z,8.17
2023-04-23T01:18:22.181Z,8.13
2023-04-23T01:21:29.401Z,8.10
2023-04-23T01:24:39.436Z,8.08
2023-04-23T01:27:45.239Z,8.06
2023-04-23T01:30:52.971Z,8.02
2023-04-23T01:34:00.588Z,7.99
2023-04-23T01:37:08.631Z,7.95
2023-04-23T01:40:17.266Z,7.89
2023-04-23T01:43:25.524Z,7.84
2023-04-23T01:46:31.604Z,7.78
2023-04-23T01:49:38.009Z,7.77
2023-04-23T01:52:45.104Z,7.74
2023-04-23T01:55:55.603Z,7.72
2023-04-23T01:59:02.182Z,7.70
2023-04-23T02:02:10.958Z,7.69
2023-04-23T02:05:22.193Z,7.69
2023-04-23T02:08:27.917Z,7.65
2023-04-23T02:11:37.464Z,7.58
2023-04-23T02:14:43.102Z,7.57
2023-04-23T02:17:51.469Z,7.50
2023-04-23T02:21:00.049Z,7.44
2023-04-23T02:24:07.336Z,7.41
2023-04-23T02:27:15.627Z,7.36
2023-04-23T02:30:23.189Z,7.32
2023-04-23T02:33:29.019Z,7.27
2023-04-23T02:36:35.793Z,7.23
2023-04-23T02:39:41.869Z,7.18
2023-04-23T02:42:51.709Z,7.16
2023-04-23T02:45:57.164Z,7.15
2023-04-23T02:49:03.560Z,7.13
2023-04-23T02:52:09.369Z,7.13
2023-04-23T02:55:15.921Z,7.10
2023-04-23T02:58:24.803Z,7.07
2023-04-23T03:01:33.900Z,7.07
2023-04-23T03:04:40.656Z,7.05
2023-04-23T03:07:47.197Z,7.03
2023-04-23T03:10:52.974Z,7.02
2023-04-23T03:14:02.736Z,7.01
2023-04-23T03:17:08.216Z,7.01
2023-04-23T03:20:15.777Z,7.01
2023-04-23T03:23:21.305Z,7.00
2023-04-23T03:26:28.179Z,6.96
2023-04-23T03:29:36.507Z,6.93
2023-04-23T03:32:42.884Z,6.88
2023-04-23T03:35:50.409Z,6.88
2023-04-23T03:39:02.626Z,6.82
2023-04-23T03:42:17.814Z,6.84
2023-04-23T03:45:27.434Z,6.81
2023-04-23T03:48:33.885Z,6.79
2023-04-23T03:51:44.132Z,6.79
2023-04-23T03:54:49.870Z,6.77
2023-04-23T03:57:57.504Z,6.73
2023-04-23T04:01:07.580Z,6.48
2023-04-23T04:04:14.468Z,6.71
2023-04-23T04:07:20.062Z,6.73
2023-04-23T04:10:26.571Z,6.79
2023-04-23T04:13:32.027Z,6.82
2023-04-23T04:16:41.089Z,6.83
2023-04-23T04:19:47.027Z,6.87
2023-04-23T04:22:53.304Z,6.92
2023-04-23T04:26:00.170Z,6.96
2023-04-23T04:29:06.957Z,7.01
2023-04-23T04:32:15.567Z,7.03
2023-04-23T04:35:21.969Z,7.09
2023-04-23T04:38:30.711Z,7.14
2023-04-23T04:41:37.190Z,7.20
2023-04-23T04:44:43.999Z,7.28
2023-04-23T04:47:53.155Z,7.35
2023-04-23T04:50:58.955Z,7.42
2023-04-23T04:54:05.366Z,7.46
2023-04-23T04:57:11.248Z,7.63
2023-04-23T05:00:29.860Z,7.72
2023-04-23T05:03:39.553Z,7.82
2023-04-23T05:06:46.046Z,7.93
2023-04-23T05:09:51.513Z,8.05
2023-04-23T05:12:59.929Z,8.14
2023-04-23T05:16:05.401Z,8.20
2023-04-23T05:19:14.487Z,8.21
2023-04-23T05:22:20.149Z,8.36
2023-04-23T05:25:26.535Z,8.50
2023-04-23T05:28:32.047Z,8.61
2023-04-23T05:31:38.582Z,8.74
2023-04-23T05:34:46.797Z,8.87
2023-04-23T05:37:53.098Z,8.98
2023-04-23T05:41:01.857Z,9.12
2023-04-23T05:44:08.450Z,9.25
2023-04-23T05:47:17.075Z,9.32
2023-04-23T05:50:27.057Z,9.45
2023-04-23T05:53:33.309Z,9.60
2023-04-23T05:56:39.885Z,9.73
2023-04-23T05:59:45.347Z,9.86
2023-04-23T06:02:52.308Z,9.97
2023-04-23T06:06:00.961Z,10.11
2023-04-23T06:09:07.670Z,10.22
2023-04-23T06:12:15.032Z,10.36
2023-04-23T06:15:27.329Z,10.52
2023-04-23T06:18:32.946Z,10.65
2023-04-23T06:21:42.449Z,10.80
2023-04-23T06:24:47.880Z,10.97
2023-04-23T06:27:54.150Z,11.14
2023-04-23T06:31:04.148Z,11.33
2023-04-23T06:34:10.557Z,11.49
2023-04-23T06:37:19.011Z,11.68
2023-04-23T06:40:25.350Z,11.85
2023-04-23T06:43:31.093Z,12.02
2023-04-23T06:47:27.582Z,12.24
2023-04-23T06:50:33.163Z,12.43
2023-04-23T06:53:42.711Z,12.59
2023-04-23T06:56:48.248Z,12.76
2023-04-23T06:59:55.214Z,12.93
2023-04-23T07:03:07.367Z,13.09
2023-04-23T07:06:14.027Z,13.26
2023-04-23T07:09:23.468Z,13.38
2023-04-23T07:12:29.986Z,13.54
2023-04-23T07:15:35.934Z,13.66
2023-04-23T07:18:42.512Z,13.80
2023-04-23T07:21:48.422Z,13.92
2023-04-23T07:24:57.804Z,14.05
2023-04-23T07:28:03.437Z,14.15
2023-04-23T07:31:10.796Z,14.17
2023-04-23T07:34:16.550Z,14.29
2023-04-23T07:37:22.855Z,14.37
2023-04-23T07:40:31.088Z,14.45
2023-04-23T07:43:37.802Z,14.53
2023-04-23T07:46:43.258Z,14.62
2023-04-23T07:49:49.695Z,14.69
2023-04-23T07:52:55.524Z,14.73
2023-04-23T07:56:04.771Z,14.83
2023-04-23T07:59:10.264Z,14.87
2023-04-23T08:02:18.903Z,14.93
2023-04-23T08:05:24.675Z,14.96
2023-04-23T08:08:31.134Z,15.03
2023-04-23T08:11:39.435Z,15.05
2023-04-23T08:14:47.822Z,15.06
2023-04-23T08:17:57.701Z,15.07
2023-04-23T08:21:05.133Z,15.10
2023-04-23T08:24:11.038Z,15.11
2023-04-23T08:27:20.350Z,15.15
2023-04-23T08:30:25.970Z,15.18
2023-04-23T08:33:32.706Z,15.24
2023-04-23T08:36:38.212Z,15.27
2023-04-23T08:39:44.783Z,15.31
2023-04-23T08:43:00.910Z,15.04
2023-04-23T08:46:08.006Z,15.40
2023-04-23T08:49:19.599Z,15.12
2023-04-23T08:52:29.153Z,15.54
2023-04-23T08:55:38.413Z,15.65
2023-04-23T08:58:50.575Z,15.75
2023-04-23T09:01:57.998Z,15.84
2023-04-23T09:05:07.131Z,15.94
2023-04-23T09:08:14.492Z,16.01
2023-04-23T09:11:22.595Z,16.01
2023-04-23T09:14:30.947Z,16.03
2023-04-23T09:17:40.582Z,16.06
2023-04-23T09:20:48.031Z,16.10
2023-04-23T09:23:55.280Z,16.10
2023-04-23T09:27:03.161Z,16.05
2023-04-23T09:30:15.655Z,16.06
2023-04-23T09:33:21.309Z,16.06
2023-04-23T09:36:28.371Z,16.11
2023-04-23T09:39:36.202Z,16.21
2023-04-23T09:42:42.624Z,16.32
2023-04-23T09:45:59.713Z,16.37
2023-04-23T09:49:08.042Z,16.45
2023-04-23T09:52:13.639Z,16.51
2023-04-23T09:55:36.043Z,16.60
2023-04-23T09:58:41.656Z,16.55
2023-04-23T10:01:52.294Z,16.61
2023-04-23T10:05:06.921Z,16.63
2023-04-23T10:08:26.296Z,16.66
2023-04-23T10:11:33.210Z,16.66
2023-04-23T10:14:43.040Z,16.68
2023-04-23T10:17:52.079Z,16.72
2023-04-23T10:20:59.208Z,16.69
2023-04-23T10:24:06.884Z,16.74
2023-04-23T10:30:29.849Z,16.89
2023-04-23T10:33:49.362Z,16.83
2023-04-23T10:37:04.905Z,16.86
2023-04-23T10:40:16.548Z,16.93
2023-04-23T10:43:23.692Z,16.98
2023-04-23T10:46:36.399Z,16.79
2023-04-23T10:49:48.129Z,17.02
2023-04-23T10:52:57.830Z,17.07
2023-04-23T10:56:11.166Z,17.19
2023-04-23T10:59:27.222Z,17.28
2023-04-23T11:02:47.988Z,17.15
2023-04-23T11:05:58.129Z,17.45
2023-04-23T11:09:23.669Z,17.54
2023-04-23T11:12:39.142Z,17.69
2023-04-23T11:15:45.823Z,17.86
2023-04-23T11:19:03.200Z,17.89
2023-04-23T11:22:19.648Z,18.07
2023-04-23T11:25:29.316Z,18.13
2023-04-23T11:28:41.744Z,18.22
2023-04-23T11:32:01.848Z,18.38
2023-04-23T11:35:13.558Z,18.50
2023-04-23T11:38:24.307Z,18.60
2023-04-23T11:41:30.496Z,18.82
2023-04-23T11:44:37.061Z,19.04
2023-04-23T11:47:42.600Z,19.23
2023-04-23T11:50:49.818Z,19.32
2023-04-23T11:53:58.399Z,19.46
2023-04-23T11:57:07.191Z,19.61
2023-04-23T12:00:22.024Z,19.64
2023-04-23T12:03:30.760Z,19.66
2023-04-23T12:06:36.572Z,19.82
2023-04-23T12:09:49.537Z,19.99
2023-04-23T12:12:56.027Z,20.03
2023-04-23T12:16:05.394Z,19.96
2023-04-23T12:19:19.106Z,19.87
2023-04-23T12:22:31.486Z,19.80
2023-04-23T12:25:40.741Z,19.87
2023-04-23T12:28:50.950Z,20.03
2023-04-23T12:32:01.717Z,20.14
2023-04-23T12:35:10.344Z,20.15
2023-04-23T12:38:26.949Z,20.18
2023-04-23T12:41:36.137Z,20.04
2023-04-23T12:44:42.369Z,19.87
2023-04-23T12:47:48.784Z,19.88
2023-04-23T12:50:54.386Z,19.85
2023-04-23T12:54:01.061Z,19.79
2023-04-23T12:57:15.073Z,19.71
2023-04-23T13:00:21.727Z,19.62
2023-04-23T13:03:27.953Z,19.54
2023-04-23T13:06:34.925Z,19.51
2023-04-23T13:09:40.652Z,19.43
2023-04-23T13:12:50.092Z,19.40
2023-04-23T13:15:55.959Z,19.45
2023-04-23T13:19:04.161Z,19.54
2023-04-23T13:22:09.682Z,19.66
2023-04-23T13:25:16.044Z,19.79
2023-04-23T13:28:24.410Z,19.90
2023-04-23T13:31:31.879Z,19.93
2023-04-23T13:34:37.441Z,19.93
2023-04-23T13:37:44.255Z,19.90
2023-04-23T13:40:49.770Z,19.94
2023-04-23T13:43:59.121Z,19.99
2023-04-23T13:47:04.787Z,20.07
2023-04-23T13:50:12.190Z,20.23
2023-04-23T13:53:17.922Z,20.42
2023-04-23T13:56:24.568Z,20.42
2023-04-23T13:59:33.262Z,20.26
2023-04-23T14:02:39.712Z,20.27
2023-04-23T14:05:45.267Z,20.28
2023-04-23T14:08:51.680Z,20.24
2023-04-23T14:11:57.287Z,20.12
2023-04-23T14:15:06.783Z,20.09
2023-04-23T14:18:12.415Z,20.10
2023-04-23T14:21:18.748Z,20.04
2023-04-23T14:24:31.825Z,20.09
2023-04-23T14:27:47.711Z,20.10
2023-04-23T14:31:00.142Z,20.09
2023-04-23T14:34:06.656Z,20.17
2023-04-23T14:37:12.877Z,20.34
2023-04-23T14:40:20.091Z,20.50
2023-04-23T14:43:26.007Z,20.64
2023-04-23T14:46:35.729Z,20.72
2023-04-23T14:49:42.240Z,20.81
2023-04-23T14:52:52.437Z,20.85
2023-04-23T14:55:58.097Z,20.74
2023-04-23T14:59:05.776Z,20.57
2023-04-23T15:02:14.640Z,20.41
2023-04-23T15:05:21.446Z,20.29
2023-04-23T15:08:26.925Z,20.16
2023-04-23T15:11:33.706Z,20.13
2023-04-23T15:14:41.509Z,20.07
2023-04-23T15:17:51.295Z,19.97
2023-04-23T15:20:57.501Z,19.90
2023-04-23T15:24:04.332Z,19.79
2023-04-23T15:27:15.227Z,19.68
2023-04-23T15:30:23.159Z,19.76
2023-04-23T15:33:33.540Z,19.79
2023-04-23T15:36:40.442Z,19.87
2023-04-23T15:39:46.066Z,20.06
2023-04-23T15:42:53.038Z,20.36
2023-04-23T15:45:59.198Z,20.64
2023-04-23T15:49:08.539Z,21.07
2023-04-23T15:52:14.968Z,21.39
2023-04-23T15:55:22.208Z,21.61
2023-04-23T15:58:27.938Z,21.91
2023-04-23T16:01:34.387Z,22.41
2023-04-23T16:04:43.724Z,22.76
2023-04-23T16:07:50.116Z,22.83
2023-04-23T16:10:57.283Z,22.81
2023-04-23T16:14:03.676Z,22.35
2023-04-23T16:17:09.212Z,22.01
2023-04-23T16:20:18.456Z,21.67
2023-04-23T16:23:23.963Z,21.63
2023-04-23T16:26:31.621Z,21.75
2023-04-23T16:29:37.236Z,21.91
2023-04-23T16:32:44.001Z,21.89
2023-04-23T16:35:52.958Z,21.81
2023-04-23T16:38:59.317Z,21.66
2023-04-23T16:42:04.791Z,21.64
2023-04-23T16:45:12.181Z,21.57
2023-04-23T16:48:20.161Z,21.42
2023-04-23T16:51:30.029Z,21.17
2023-04-23T16:54:36.429Z,21.02
2023-04-23T16:57:42.989Z,20.83
2023-04-23T17:00:49.194Z,20.70
2023-04-23T17:03:56.021Z,20.42
2023-04-23T17:07:04.929Z,20.18
2023-04-23T17:10:12.856Z,19.89
2023-04-23T17:13:18.331Z,19.69
2023-04-23T17:16:25.478Z,19.59
2023-04-23T17:19:31.041Z,19.43
2023-04-23T17:22:40.665Z,19.29
2023-04-23T17:25:47.076Z,19.23
2023-04-23T17:28:53.782Z,18.90
2023-04-23T17:31:59.632Z,19.05
2023-04-23T17:35:10.063Z,18.76
2023-04-23T17:38:20.799Z,18.34
2023-04-23T17:41:27.296Z,18.09
2023-04-23T17:44:32.932Z,17.76
2023-04-23T17:47:41.106Z,17.33
2023-04-23T17:50:48.663Z,16.96
2023-04-23T17:53:58.876Z,16.61
2023-04-23T17:57:07.077Z,16.24
2023-04-23T18:00:16.145Z,15.87
2023-04-23T18:03:22.424Z,15.66
2023-04-23T18:06:29.271Z,15.53
2023-04-23T18:09:37.517Z,15.50
2023-04-23T18:12:44.015Z,15.50
2023-04-23T18:15:50.365Z,15.51
2023-04-23T18:18:56.925Z,15.49
2023-04-23T18:22:03.922Z,15.47
2023-04-23T18:25:13.918Z,15.38
2023-04-23T18:28:19.364Z,15.23
2023-04-23T18:31:25.887Z,15.13
2023-04-23T18:34:35.757Z,14.99
2023-04-23T18:37:50.391Z,14.92
2023-04-23T18:40:59.447Z,14.87
2023-04-23T18:44:05.750Z,14.78
2023-04-23T18:47:11.272Z,14.69
2023-04-23T18:50:40.950Z,14.61
2023-04-23T18:53:46.585Z,14.59
2023-04-23T18:56:56.307Z,14.61
2023-04-23T19:00:01.992Z,14.57
2023-04-23T19:03:23.604Z,14.64
2023-04-23T19:06:32.653Z,14.70
2023-04-23T19:09:39.030Z,14.77
2023-04-23T19:12:47.502Z,14.80
2023-04-23T19:15:54.139Z,14.71
2023-04-23T19:19:00.117Z,14.65
2023-04-23T19:22:06.680Z,14.68
2023-04-23T19:25:13.360Z,14.72
2023-04-23T19:28:24.772Z,14.75
2023-04-23T19:31:31.909Z,14.75
2023-04-23T19:34:38.257Z,14.77
2023-04-23T19:37:43.988Z,14.79
2023-04-23T19:40:51.435Z,14.80
2023-04-23T19:43:59.723Z,14.78
2023-04-23T19:47:06.423Z,14.77
2023-04-23T19:50:14.214Z,14.66
2023-04-23T19:53:22.158Z,14.58
2023-04-23T19:56:27.689Z,14.55
2023-04-23T19:59:37.409Z,14.50
2023-04-23T20:02:43.650Z,14.44
2023-04-23T20:05:50.352Z,14.36
2023-04-23T20:09:08.491Z,14.28
2023-04-23T20:12:16.115Z,14.19
2023-04-23T20:15:26.025Z,14.14
2023-04-23T20:18:34.622Z,14.05
2023-04-23T20:21:41.400Z,13.96
2023-04-23T20:24:49.585Z,13.89
2023-04-23T20:27:55.707Z,13.82
2023-04-23T20:31:05.073Z,13.76
2023-04-23T20:34:11.279Z,13.70
2023-04-23T20:37:21.755Z,13.62
2023-04-23T20:40:28.086Z,13.52
2023-04-23T20:43:39.021Z,13.44
2023-04-23T20:46:49.753Z,13.37
2023-04-23T20:49:56.158Z,13.32
2023-04-23T20:53:01.771Z,13.27
2023-04-23T20:56:08.477Z,13.20
2023-04-23T20:59:14.005Z,13.14
2023-04-23T21:02:23.584Z,13.07
2023-04-23T21:05:29.443Z,13.02
2023-04-23T21:08:36.221Z,12.99
2023-04-23T21:11:42.523Z,12.96
2023-04-23T21:14:49.190Z,12.92
2023-04-23T21:17:57.501Z,12.88
2023-04-23T21:21:04.565Z,12.83
2023-04-23T21:24:10.505Z,12.77
2023-04-23T21:27:22.050Z,12.70
2023-04-23T21:30:49.358Z,12.68
2023-04-23T21:33:58.501Z,12.65
2023-04-23T21:37:04.026Z,12.63
2023-04-23T21:40:12.618Z,12.63
2023-04-23T21:43:19.568Z,12.58
2023-04-23T21:46:27.056Z,12.53
2023-04-23T21:49:36.072Z,12.51
2023-04-23T21:52:46.100Z,12.49
2023-04-23T21:55:52.039Z,12.46
2023-04-23T21:58:58.370Z,12.46
2023-04-23T22:02:04.244Z,12.45
2023-04-23T22:05:13.650Z,12.44
2023-04-23T22:08:19.644Z,12.41
2023-04-23T22:11:26.420Z,12.37
2023-04-23T22:14:32.509Z,12.31
2023-04-23T22:17:39.494Z,12.26
2023-04-23T22:20:51.080Z,12.20
2023-04-23T22:23:57.600Z,12.16
2023-04-23T22:27:03.493Z,12.11
2023-04-23T22:30:13.256Z,12.06
2023-04-23T22:33:18.707Z,12.00
2023-04-23T22:36:28.378Z,11.95
2023-04-23T22:39:33.983Z,11.89
2023-04-23T22:42:40.601Z,11.86
2023-04-23T22:45:46.565Z,11.78
2023-04-23T22:48:53.820Z,11.75
2023-04-23T22:52:02.601Z,11.67
2023-04-23T22:55:10.960Z,11.66
2023-04-23T22:58:16.597Z,11.62
2023-04-23T23:01:23.095Z,11.60
2023-04-23T23:04:28.576Z,11.58
2023-04-23T23:07:37.661Z,11.56
2023-04-23T23:10:43.236Z,11.51
2023-04-23T23:13:49.554Z,11.49
2023-04-23T23:16:55.890Z,11.43
2023-04-23T23:20:02.237Z,11.36
2023-04-23T23:23:10.524Z,11.30
2023-04-23T23:26:16.919Z,11.26
2023-04-23T23:29:22.356Z,11.23
2023-04-23T23:32:28.781Z,11.21
2023-04-23T23:35:34.413Z,11.20
2023-04-23T23:38:43.503Z,11.20
2023-04-23T23:41:49.343Z,11.22
2023-04-23T23:44:55.716Z,11.24
2023-04-23T23:48:02.509Z,11.25
2023-04-23T23:51:09.091Z,11.26
2023-04-23T23:54:17.898Z,11.25
2023-04-23T23:57:24.462Z,11.25
